sensor_id;sensor_type;location;lat;lon;timestamp;P1;durP1;ratioP1;P2;durP2;ratioP2
65686;SDS011;52406;45.078;38.986;2022-07-06T00:02:02;12.05;;;4.75;;
65686;SDS011;52406;45.078;38.986;2022-07-06T00:04:29;9.77;;;4.40;;
65686;SDS011;52406;45.078;38.986;2022-07-06T00:06:57;13.23;;;4.70;;
65686;SDS011;52406;45.078;38.986;2022-07-06T00:09:23;11.23;;;4.43;;
65686;SDS011;52406;45.078;38.986;2022-07-06T00:11:50;8.60;;;4.78;;
65686;SDS011;52406;45.078;38.986;2022-07-06T00:14:19;9.60;;;4.40;;
65686;SDS011;52406;45.078;38.986;2022-07-06T00:16:48;10.20;;;4.53;;
65686;SDS011;52406;45.078;38.986;2022-07-06T00:19:15;16.55;;;4.65;;
65686;SDS011;52406;45.078;38.986;2022-07-06T00:21:41;10.18;;;4.43;;
65686;SDS011;52406;45.078;38.986;2022-07-06T00:24:08;5.97;;;3.88;;
65686;SDS011;52406;45.078;38.986;2022-07-06T00:26:40;10.93;;;4.28;;
65686;SDS011;52406;45.078;38.986;2022-07-06T00:29:09;8.32;;;4.97;;
65686;SDS011;52406;45.078;38.986;2022-07-06T00:31:37;10.70;;;4.07;;
65686;SDS011;52406;45.078;38.986;2022-07-06T00:34:04;12.82;;;4.95;;
65686;SDS011;52406;45.078;38.986;2022-07-06T00:36:33;18.60;;;4.82;;
65686;SDS011;52406;45.078;38.986;2022-07-06T00:38:59;13.40;;;4.57;;
65686;SDS011;52406;45.078;38.986;2022-07-06T00:41:27;6.93;;;4.30;;
65686;SDS011;52406;45.078;38.986;2022-07-06T00:43:55;12.05;;;4.32;;
65686;SDS011;52406;45.078;38.986;2022-07-06T00:46:25;10.45;;;4.55;;
65686;SDS011;52406;45.078;38.986;2022-07-06T00:48:55;5.78;;;3.90;;
65686;SDS011;52406;45.078;38.986;2022-07-06T00:51:23;9.02;;;4.68;;
65686;SDS011;52406;45.078;38.986;2022-07-06T00:53:53;7.80;;;4.53;;
65686;SDS011;52406;45.078;38.986;2022-07-06T00:56:24;7.88;;;4.28;;
65686;SDS011;52406;45.078;38.986;2022-07-06T00:58:56;8.52;;;4.88;;
65686;SDS011;52406;45.078;38.986;2022-07-06T01:01:26;12.02;;;4.60;;
65686;SDS011;52406;45.078;38.986;2022-07-06T01:04:04;13.82;;;4.72;;
65686;SDS011;52406;45.078;38.986;2022-07-06T01:06:30;14.75;;;4.63;;
65686;SDS011;52406;45.078;38.986;2022-07-06T01:08:57;10.20;;;4.43;;
65686;SDS011;52406;45.078;38.986;2022-07-06T01:11:25;12.32;;;4.88;;
65686;SDS011;52406;45.078;38.986;2022-07-06T01:13:52;11.63;;;4.25;;
65686;SDS011;52406;45.078;38.986;2022-07-06T01:16:20;8.95;;;4.43;;
65686;SDS011;52406;45.078;38.986;2022-07-06T01:18:46;8.80;;;4.53;;
65686;SDS011;52406;45.078;38.986;2022-07-06T01:21:13;10.00;;;4.55;;
65686;SDS011;52406;45.078;38.986;2022-07-06T01:23:41;11.93;;;4.15;;
65686;SDS011;52406;45.078;38.986;2022-07-06T01:26:16;12.02;;;4.50;;
65686;SDS011;52406;45.078;38.986;2022-07-06T01:28:46;8.00;;;4.47;;
65686;SDS011;52406;45.078;38.986;2022-07-06T01:31:25;10.18;;;4.05;;
65686;SDS011;52406;45.078;38.986;2022-07-06T01:33:57;9.95;;;4.20;;
65686;SDS011;52406;45.078;38.986;2022-07-06T01:36:24;11.38;;;3.78;;
65686;SDS011;52406;45.078;38.986;2022-07-06T01:38:52;17.98;;;3.95;;
65686;SDS011;52406;45.078;38.986;2022-07-06T01:41:20;8.18;;;3.80;;
65686;SDS011;52406;45.078;38.986;2022-07-06T01:43:49;15.65;;;4.10;;
65686;SDS011;52406;45.078;38.986;2022-07-06T01:46:17;7.38;;;4.00;;
65686;SDS011;52406;45.078;38.986;2022-07-06T01:48:45;10.98;;;3.75;;
65686;SDS011;52406;45.078;38.986;2022-07-06T01:51:12;13.25;;;4.47;;
65686;SDS011;52406;45.078;38.986;2022-07-06T01:53:41;6.70;;;3.90;;
65686;SDS011;52406;45.078;38.986;2022-07-06T01:56:08;10.68;;;3.85;;
65686;SDS011;52406;45.078;38.986;2022-07-06T01:58:35;10.20;;;3.58;;
65686;SDS011;52406;45.078;38.986;2022-07-06T02:01:09;11.13;;;3.97;;
65686;SDS011;52406;45.078;38.986;2022-07-06T02:03:37;12.18;;;4.07;;
65686;SDS011;52406;45.078;38.986;2022-07-06T02:06:04;12.27;;;4.03;;
65686;SDS011;52406;45.078;38.986;2022-07-06T02:08:32;9.30;;;3.75;;
65686;SDS011;52406;45.078;38.986;2022-07-06T02:10:59;13.45;;;3.80;;
65686;SDS011;52406;45.078;38.986;2022-07-06T02:13:35;11.52;;;3.65;;
65686;SDS011;52406;45.078;38.986;2022-07-06T02:16:04;12.77;;;3.88;;
65686;SDS011;52406;45.078;38.986;2022-07-06T02:18:33;11.77;;;3.25;;
65686;SDS011;52406;45.078;38.986;2022-07-06T02:20:59;17.15;;;3.90;;
65686;SDS011;52406;45.078;38.986;2022-07-06T02:23:29;7.95;;;3.47;;
65686;SDS011;52406;45.078;38.986;2022-07-06T02:25:57;11.85;;;4.00;;
65686;SDS011;52406;45.078;38.986;2022-07-06T02:28:25;11.70;;;3.30;;
65686;SDS011;52406;45.078;38.986;2022-07-06T02:30:53;8.75;;;4.00;;
65686;SDS011;52406;45.078;38.986;2022-07-06T02:33:20;8.27;;;3.20;;
65686;SDS011;52406;45.078;38.986;2022-07-06T02:35:48;5.00;;;3.00;;
65686;SDS011;52406;45.078;38.986;2022-07-06T02:38:19;7.93;;;3.58;;
65686;SDS011;52406;45.078;38.986;2022-07-06T02:40:48;7.50;;;3.63;;
65686;SDS011;52406;45.078;38.986;2022-07-06T02:43:15;13.65;;;3.88;;
65686;SDS011;52406;45.078;38.986;2022-07-06T02:45:43;6.30;;;3.53;;
65686;SDS011;52406;45.078;38.986;2022-07-06T02:48:11;8.43;;;3.53;;
65686;SDS011;52406;45.078;38.986;2022-07-06T02:50:38;11.23;;;3.38;;
65686;SDS011;52406;45.078;38.986;2022-07-06T02:53:05;8.43;;;3.50;;
65686;SDS011;52406;45.078;38.986;2022-07-06T02:55:32;7.90;;;4.18;;
65686;SDS011;52406;45.078;38.986;2022-07-06T02:57:58;9.95;;;3.15;;
65686;SDS011;52406;45.078;38.986;2022-07-06T03:00:25;11.80;;;3.53;;
65686;SDS011;52406;45.078;38.986;2022-07-06T03:02:53;12.85;;;4.03;;
65686;SDS011;52406;45.078;38.986;2022-07-06T03:05:20;11.48;;;3.88;;
65686;SDS011;52406;45.078;38.986;2022-07-06T03:07:47;6.35;;;3.25;;
65686;SDS011;52406;45.078;38.986;2022-07-06T03:10:17;5.32;;;3.03;;
65686;SDS011;52406;45.078;38.986;2022-07-06T03:12:44;7.28;;;3.80;;
65686;SDS011;52406;45.078;38.986;2022-07-06T03:15:13;6.25;;;3.47;;
65686;SDS011;52406;45.078;38.986;2022-07-06T03:17:43;10.45;;;3.80;;
65686;SDS011;52406;45.078;38.986;2022-07-06T03:20:11;15.35;;;3.30;;
65686;SDS011;52406;45.078;38.986;2022-07-06T03:22:38;8.35;;;3.75;;
65686;SDS011;52406;45.078;38.986;2022-07-06T03:25:09;11.57;;;3.42;;
65686;SDS011;52406;45.078;38.986;2022-07-06T03:27:38;12.02;;;3.67;;
65686;SDS011;52406;45.078;38.986;2022-07-06T03:30:05;12.10;;;3.63;;
65686;SDS011;52406;45.078;38.986;2022-07-06T03:32:33;8.13;;;4.07;;
65686;SDS011;52406;45.078;38.986;2022-07-06T03:35:02;12.65;;;3.58;;
65686;SDS011;52406;45.078;38.986;2022-07-06T03:37:31;7.82;;;3.78;;
65686;SDS011;52406;45.078;38.986;2022-07-06T03:39:59;18.55;;;3.70;;
65686;SDS011;52406;45.078;38.986;2022-07-06T03:42:28;6.85;;;2.85;;
65686;SDS011;52406;45.078;38.986;2022-07-06T03:44:58;11.45;;;3.72;;
65686;SDS011;52406;45.078;38.986;2022-07-06T03:47:25;12.95;;;3.30;;
65686;SDS011;52406;45.078;38.986;2022-07-06T03:49:52;9.68;;;3.53;;
65686;SDS011;52406;45.078;38.986;2022-07-06T03:52:22;8.10;;;3.40;;
65686;SDS011;52406;45.078;38.986;2022-07-06T03:54:54;8.68;;;3.22;;
65686;SDS011;52406;45.078;38.986;2022-07-06T03:57:28;15.27;;;3.35;;
65686;SDS011;52406;45.078;38.986;2022-07-06T03:59:57;13.77;;;3.47;;
65686;SDS011;52406;45.078;38.986;2022-07-06T04:02:24;9.43;;;3.03;;
65686;SDS011;52406;45.078;38.986;2022-07-06T04:04:52;8.73;;;3.08;;
65686;SDS011;52406;45.078;38.986;2022-07-06T04:07:24;11.07;;;3.10;;
65686;SDS011;52406;45.078;38.986;2022-07-06T04:09:51;10.32;;;3.33;;
65686;SDS011;52406;45.078;38.986;2022-07-06T04:12:18;9.77;;;3.15;;
65686;SDS011;52406;45.078;38.986;2022-07-06T04:14:44;5.80;;;3.10;;
65686;SDS011;52406;45.078;38.986;2022-07-06T04:17:13;9.18;;;3.45;;
65686;SDS011;52406;45.078;38.986;2022-07-06T04:20:02;6.68;;;3.35;;
65686;SDS011;52406;45.078;38.986;2022-07-06T04:22:28;9.93;;;3.03;;
65686;SDS011;52406;45.078;38.986;2022-07-06T04:24:55;10.13;;;3.10;;
65686;SDS011;52406;45.078;38.986;2022-07-06T04:27:24;7.07;;;3.10;;
65686;SDS011;52406;45.078;38.986;2022-07-06T04:29:52;14.57;;;3.50;;
65686;SDS011;52406;45.078;38.986;2022-07-06T04:32:19;9.27;;;3.13;;
65686;SDS011;52406;45.078;38.986;2022-07-06T04:34:47;9.65;;;3.40;;
65686;SDS011;52406;45.078;38.986;2022-07-06T04:37:16;5.82;;;3.00;;
65686;SDS011;52406;45.078;38.986;2022-07-06T04:39:43;8.05;;;3.28;;
65686;SDS011;52406;45.078;38.986;2022-07-06T04:42:09;7.88;;;3.00;;
65686;SDS011;52406;45.078;38.986;2022-07-06T04:44:37;9.32;;;3.08;;
65686;SDS011;52406;45.078;38.986;2022-07-06T04:47:04;5.70;;;2.92;;
65686;SDS011;52406;45.078;38.986;2022-07-06T04:49:31;7.55;;;3.25;;
65686;SDS011;52406;45.078;38.986;2022-07-06T04:51:57;12.70;;;3.13;;
65686;SDS011;52406;45.078;38.986;2022-07-06T04:54:25;13.52;;;3.60;;
65686;SDS011;52406;45.078;38.986;2022-07-06T04:56:51;13.63;;;3.67;;
65686;SDS011;52406;45.078;38.986;2022-07-06T04:59:18;9.77;;;2.85;;
65686;SDS011;52406;45.078;38.986;2022-07-06T05:01:47;12.73;;;3.20;;
65686;SDS011;52406;45.078;38.986;2022-07-06T05:04:14;9.48;;;3.22;;
65686;SDS011;52406;45.078;38.986;2022-07-06T05:06:44;16.55;;;3.42;;
65686;SDS011;52406;45.078;38.986;2022-07-06T05:09:12;9.13;;;3.30;;
65686;SDS011;52406;45.078;38.986;2022-07-06T05:11:44;9.90;;;3.38;;
65686;SDS011;52406;45.078;38.986;2022-07-06T05:14:12;13.07;;;3.45;;
65686;SDS011;52406;45.078;38.986;2022-07-06T05:16:38;6.43;;;3.28;;
65686;SDS011;52406;45.078;38.986;2022-07-06T05:19:05;10.68;;;3.30;;
65686;SDS011;52406;45.078;38.986;2022-07-06T05:21:31;10.77;;;3.42;;
65686;SDS011;52406;45.078;38.986;2022-07-06T05:23:59;10.30;;;3.20;;
65686;SDS011;52406;45.078;38.986;2022-07-06T05:26:26;13.95;;;3.30;;
65686;SDS011;52406;45.078;38.986;2022-07-06T05:28:53;12.07;;;2.97;;
65686;SDS011;52406;45.078;38.986;2022-07-06T05:31:21;10.88;;;3.60;;
65686;SDS011;52406;45.078;38.986;2022-07-06T05:33:48;7.78;;;3.08;;
65686;SDS011;52406;45.078;38.986;2022-07-06T05:36:15;8.35;;;3.13;;
65686;SDS011;52406;45.078;38.986;2022-07-06T05:38:42;8.82;;;3.10;;
65686;SDS011;52406;45.078;38.986;2022-07-06T05:41:08;10.23;;;3.85;;
65686;SDS011;52406;45.078;38.986;2022-07-06T05:43:36;5.25;;;3.00;;
65686;SDS011;52406;45.078;38.986;2022-07-06T05:46:06;5.75;;;3.08;;
65686;SDS011;52406;45.078;38.986;2022-07-06T05:48:35;14.18;;;3.70;;
65686;SDS011;52406;45.078;38.986;2022-07-06T05:51:21;8.52;;;3.40;;
65686;SDS011;52406;45.078;38.986;2022-07-06T05:53:47;15.48;;;3.95;;
65686;SDS011;52406;45.078;38.986;2022-07-06T05:56:14;16.10;;;3.67;;
65686;SDS011;52406;45.078;38.986;2022-07-06T05:58:42;11.18;;;3.13;;
65686;SDS011;52406;45.078;38.986;2022-07-06T06:01:10;13.27;;;3.13;;
65686;SDS011;52406;45.078;38.986;2022-07-06T06:03:38;10.77;;;3.45;;
65686;SDS011;52406;45.078;38.986;2022-07-06T06:06:05;9.40;;;3.22;;
65686;SDS011;52406;45.078;38.986;2022-07-06T06:08:32;13.48;;;3.28;;
65686;SDS011;52406;45.078;38.986;2022-07-06T06:10:59;7.00;;;3.40;;
65686;SDS011;52406;45.078;38.986;2022-07-06T06:13:28;13.68;;;3.55;;
65686;SDS011;52406;45.078;38.986;2022-07-06T06:15:54;6.85;;;2.58;;
65686;SDS011;52406;45.078;38.986;2022-07-06T06:18:21;11.43;;;3.05;;
65686;SDS011;52406;45.078;38.986;2022-07-06T06:20:50;8.63;;;3.10;;
65686;SDS011;52406;45.078;38.986;2022-07-06T06:23:16;11.00;;;2.90;;
65686;SDS011;52406;45.078;38.986;2022-07-06T06:25:43;9.20;;;2.47;;
65686;SDS011;52406;45.078;38.986;2022-07-06T06:28:11;11.52;;;2.63;;
65686;SDS011;52406;45.078;38.986;2022-07-06T06:30:38;8.85;;;2.70;;
65686;SDS011;52406;45.078;38.986;2022-07-06T06:33:06;12.85;;;2.65;;
65686;SDS011;52406;45.078;38.986;2022-07-06T06:35:44;17.05;;;3.03;;
65686;SDS011;52406;45.078;38.986;2022-07-06T06:38:11;24.85;;;3.00;;
65686;SDS011;52406;45.078;38.986;2022-07-06T06:40:38;17.33;;;2.50;;
65686;SDS011;52406;45.078;38.986;2022-07-06T06:43:06;13.75;;;2.25;;
65686;SDS011;52406;45.078;38.986;2022-07-06T06:45:37;8.13;;;2.10;;
65686;SDS011;52406;45.078;38.986;2022-07-06T06:48:04;8.55;;;2.38;;
65686;SDS011;52406;45.078;38.986;2022-07-06T06:50:30;11.95;;;2.60;;
65686;SDS011;52406;45.078;38.986;2022-07-06T06:52:57;12.93;;;2.42;;
65686;SDS011;52406;45.078;38.986;2022-07-06T06:55:24;16.20;;;2.40;;
65686;SDS011;52406;45.078;38.986;2022-07-06T06:57:52;7.43;;;2.05;;
65686;SDS011;52406;45.078;38.986;2022-07-06T07:00:19;13.57;;;2.33;;
65686;SDS011;52406;45.078;38.986;2022-07-06T07:02:45;12.73;;;2.15;;
65686;SDS011;52406;45.078;38.986;2022-07-06T07:05:13;14.27;;;2.22;;
65686;SDS011;52406;45.078;38.986;2022-07-06T07:07:41;10.52;;;4.45;;
65686;SDS011;52406;45.078;38.986;2022-07-06T07:10:10;15.95;;;2.60;;
65686;SDS011;52406;45.078;38.986;2022-07-06T07:12:43;15.00;;;2.15;;
65686;SDS011;52406;45.078;38.986;2022-07-06T07:15:13;8.55;;;2.28;;
65686;SDS011;52406;45.078;38.986;2022-07-06T07:17:41;18.15;;;2.10;;
65686;SDS011;52406;45.078;38.986;2022-07-06T07:20:08;12.82;;;2.10;;
65686;SDS011;52406;45.078;38.986;2022-07-06T07:22:37;14.20;;;1.77;;
65686;SDS011;52406;45.078;38.986;2022-07-06T07:25:04;18.70;;;2.40;;
65686;SDS011;52406;45.078;38.986;2022-07-06T07:27:31;6.45;;;2.08;;
65686;SDS011;52406;45.078;38.986;2022-07-06T07:29:58;13.27;;;2.10;;
65686;SDS011;52406;45.078;38.986;2022-07-06T07:32:26;9.15;;;2.40;;
65686;SDS011;52406;45.078;38.986;2022-07-06T07:34:54;15.98;;;2.05;;
65686;SDS011;52406;45.078;38.986;2022-07-06T07:37:21;15.48;;;2.08;;
65686;SDS011;52406;45.078;38.986;2022-07-06T07:39:47;22.52;;;2.65;;
65686;SDS011;52406;45.078;38.986;2022-07-06T07:42:14;7.05;;;1.92;;
65686;SDS011;52406;45.078;38.986;2022-07-06T07:44:42;13.38;;;2.38;;
65686;SDS011;52406;45.078;38.986;2022-07-06T07:47:10;8.55;;;2.47;;
65686;SDS011;52406;45.078;38.986;2022-07-06T07:49:36;8.25;;;2.38;;
65686;SDS011;52406;45.078;38.986;2022-07-06T07:52:04;9.38;;;2.00;;
65686;SDS011;52406;45.078;38.986;2022-07-06T07:54:34;7.22;;;2.33;;
65686;SDS011;52406;45.078;38.986;2022-07-06T07:57:00;11.57;;;2.75;;
65686;SDS011;52406;45.078;38.986;2022-07-06T07:59:27;12.05;;;2.38;;
65686;SDS011;52406;45.078;38.986;2022-07-06T08:01:53;7.72;;;2.10;;
65686;SDS011;52406;45.078;38.986;2022-07-06T08:04:21;8.40;;;2.50;;
65686;SDS011;52406;45.078;38.986;2022-07-06T08:06:48;5.93;;;2.30;;
65686;SDS011;52406;45.078;38.986;2022-07-06T08:09:15;6.43;;;1.90;;
65686;SDS011;52406;45.078;38.986;2022-07-06T08:11:43;5.55;;;2.00;;
65686;SDS011;52406;45.078;38.986;2022-07-06T08:14:11;7.05;;;1.90;;
65686;SDS011;52406;45.078;38.986;2022-07-06T08:16:39;14.35;;;2.47;;
65686;SDS011;52406;45.078;38.986;2022-07-06T08:19:15;11.13;;;2.40;;
65686;SDS011;52406;45.078;38.986;2022-07-06T08:21:43;6.93;;;2.20;;
65686;SDS011;52406;45.078;38.986;2022-07-06T08:24:10;5.40;;;2.00;;
65686;SDS011;52406;45.078;38.986;2022-07-06T08:26:37;6.68;;;1.80;;
65686;SDS011;52406;45.078;38.986;2022-07-06T08:29:04;7.97;;;2.50;;
65686;SDS011;52406;45.078;38.986;2022-07-06T08:31:30;7.22;;;1.73;;
65686;SDS011;52406;45.078;38.986;2022-07-06T08:33:58;9.50;;;1.95;;
65686;SDS011;52406;45.078;38.986;2022-07-06T08:36:25;4.05;;;2.10;;
65686;SDS011;52406;45.078;38.986;2022-07-06T08:38:52;3.10;;;2.25;;
65686;SDS011;52406;45.078;38.986;2022-07-06T08:41:21;7.75;;;2.30;;
65686;SDS011;52406;45.078;38.986;2022-07-06T08:43:52;9.60;;;2.00;;
65686;SDS011;52406;45.078;38.986;2022-07-06T08:46:19;8.13;;;2.10;;
65686;SDS011;52406;45.078;38.986;2022-07-06T08:48:48;5.97;;;2.08;;
65686;SDS011;52406;45.078;38.986;2022-07-06T08:51:17;9.90;;;2.03;;
65686;SDS011;52406;45.078;38.986;2022-07-06T08:53:45;8.60;;;1.80;;
65686;SDS011;52406;45.078;38.986;2022-07-06T08:56:18;10.25;;;2.05;;
65686;SDS011;52406;45.078;38.986;2022-07-06T08:58:45;6.25;;;2.08;;
65686;SDS011;52406;45.078;38.986;2022-07-06T09:01:12;8.45;;;1.90;;
65686;SDS011;52406;45.078;38.986;2022-07-06T09:03:42;11.07;;;1.92;;
65686;SDS011;52406;45.078;38.986;2022-07-06T09:06:12;8.65;;;1.50;;
65686;SDS011;52406;45.078;38.986;2022-07-06T09:08:42;4.65;;;1.77;;
65686;SDS011;52406;45.078;38.986;2022-07-06T09:11:09;8.63;;;1.88;;
65686;SDS011;52406;45.078;38.986;2022-07-06T09:13:36;10.38;;;2.00;;
65686;SDS011;52406;45.078;38.986;2022-07-06T09:16:12;9.23;;;1.67;;
65686;SDS011;52406;45.078;38.986;2022-07-06T09:18:43;2.90;;;1.50;;
65686;SDS011;52406;45.078;38.986;2022-07-06T09:21:10;5.43;;;1.65;;
65686;SDS011;52406;45.078;38.986;2022-07-06T09:23:37;14.77;;;1.90;;
65686;SDS011;52406;45.078;38.986;2022-07-06T09:26:07;12.68;;;1.90;;
65686;SDS011;52406;45.078;38.986;2022-07-06T09:28:42;7.25;;;1.73;;
65686;SDS011;52406;45.078;38.986;2022-07-06T09:31:09;12.32;;;1.80;;
65686;SDS011;52406;45.078;38.986;2022-07-06T09:33:36;8.52;;;1.65;;
65686;SDS011;52406;45.078;38.986;2022-07-06T09:36:03;9.57;;;1.60;;
65686;SDS011;52406;45.078;38.986;2022-07-06T09:38:34;5.60;;;1.70;;
65686;SDS011;52406;45.078;38.986;2022-07-06T09:41:00;3.95;;;1.60;;
65686;SDS011;52406;45.078;38.986;2022-07-06T09:43:28;2.67;;;1.50;;
65686;SDS011;52406;45.078;38.986;2022-07-06T09:45:56;13.18;;;2.08;;
65686;SDS011;52406;45.078;38.986;2022-07-06T09:48:24;8.73;;;1.80;;
65686;SDS011;52406;45.078;38.986;2022-07-06T09:50:54;7.35;;;1.70;;
65686;SDS011;52406;45.078;38.986;2022-07-06T09:53:23;4.63;;;1.67;;
65686;SDS011;52406;45.078;38.986;2022-07-06T09:55:51;9.25;;;1.60;;
65686;SDS011;52406;45.078;38.986;2022-07-06T09:58:20;6.38;;;1.70;;
65686;SDS011;52406;45.078;38.986;2022-07-06T10:00:47;5.82;;;1.67;;
65686;SDS011;52406;45.078;38.986;2022-07-06T10:03:15;7.43;;;1.63;;
65686;SDS011;52406;45.078;38.986;2022-07-06T10:05:43;5.45;;;1.80;;
65686;SDS011;52406;45.078;38.986;2022-07-06T10:08:17;8.88;;;1.65;;
65686;SDS011;52406;45.078;38.986;2022-07-06T10:10:45;6.65;;;1.50;;
65686;SDS011;52406;45.078;38.986;2022-07-06T10:13:13;9.90;;;2.17;;
65686;SDS011;52406;45.078;38.986;2022-07-06T10:15:45;2.53;;;1.30;;
65686;SDS011;52406;45.078;38.986;2022-07-06T10:18:15;6.40;;;1.50;;
65686;SDS011;52406;45.078;38.986;2022-07-06T10:20:42;6.75;;;1.40;;
65686;SDS011;52406;45.078;38.986;2022-07-06T10:23:09;12.95;;;1.88;;
65686;SDS011;52406;45.078;38.986;2022-07-06T10:25:35;7.13;;;1.63;;
65686;SDS011;52406;45.078;38.986;2022-07-06T10:28:02;8.73;;;1.60;;
65686;SDS011;52406;45.078;38.986;2022-07-06T10:30:36;7.93;;;1.50;;
65686;SDS011;52406;45.078;38.986;2022-07-06T10:33:03;8.45;;;1.58;;
65686;SDS011;52406;45.078;38.986;2022-07-06T10:35:30;9.55;;;1.50;;
65686;SDS011;52406;45.078;38.986;2022-07-06T10:41:05;3.60;;;1.48;;
65686;SDS011;52406;45.078;38.986;2022-07-06T10:43:34;4.78;;;1.20;;
65686;SDS011;52406;45.078;38.986;2022-07-06T10:46:10;6.18;;;1.35;;
65686;SDS011;52406;45.078;38.986;2022-07-06T10:48:41;6.53;;;1.90;;
65686;SDS011;52406;45.078;38.986;2022-07-06T10:51:13;7.63;;;1.98;;
65686;SDS011;52406;45.078;38.986;2022-07-06T10:54:00;10.70;;;1.73;;
65686;SDS011;52406;45.078;38.986;2022-07-06T10:56:33;7.95;;;1.90;;
65686;SDS011;52406;45.078;38.986;2022-07-06T10:59:17;5.22;;;1.83;;
65686;SDS011;52406;45.078;38.986;2022-07-06T11:04:43;17.75;;;1.75;;
65686;SDS011;52406;45.078;38.986;2022-07-06T11:07:14;5.20;;;1.20;;
65686;SDS011;52406;45.078;38.986;2022-07-06T11:09:55;3.92;;;0.95;;
65686;SDS011;52406;45.078;38.986;2022-07-06T11:12:26;5.85;;;1.20;;
65686;SDS011;52406;45.078;38.986;2022-07-06T11:14:53;6.03;;;1.90;;
65686;SDS011;52406;45.078;38.986;2022-07-06T11:17:20;5.55;;;1.48;;
65686;SDS011;52406;45.078;38.986;2022-07-06T11:19:55;2.45;;;1.40;;
65686;SDS011;52406;45.078;38.986;2022-07-06T11:22:40;4.95;;;1.42;;
65686;SDS011;52406;45.078;38.986;2022-07-06T11:25:06;2.70;;;1.10;;
65686;SDS011;52406;45.078;38.986;2022-07-06T11:27:34;5.85;;;1.55;;
65686;SDS011;52406;45.078;38.986;2022-07-06T11:30:00;8.23;;;1.70;;
65686;SDS011;52406;45.078;38.986;2022-07-06T11:32:27;9.05;;;2.10;;
65686;SDS011;52406;45.078;38.986;2022-07-06T11:34:55;16.90;;;2.33;;
65686;SDS011;52406;45.078;38.986;2022-07-06T11:37:25;6.63;;;1.90;;
65686;SDS011;52406;45.078;38.986;2022-07-06T11:39:55;7.88;;;1.50;;
65686;SDS011;52406;45.078;38.986;2022-07-06T11:42:24;6.50;;;1.50;;
65686;SDS011;52406;45.078;38.986;2022-07-06T11:44:51;6.80;;;1.40;;
65686;SDS011;52406;45.078;38.986;2022-07-06T11:47:20;9.13;;;1.30;;
65686;SDS011;52406;45.078;38.986;2022-07-06T11:49:56;8.05;;;1.30;;
65686;SDS011;52406;45.078;38.986;2022-07-06T11:52:23;2.22;;;1.08;;
65686;SDS011;52406;45.078;38.986;2022-07-06T11:54:56;4.60;;;1.20;;
65686;SDS011;52406;45.078;38.986;2022-07-06T11:57:26;5.63;;;1.48;;
65686;SDS011;52406;45.078;38.986;2022-07-06T11:59:56;3.83;;;1.05;;
65686;SDS011;52406;45.078;38.986;2022-07-06T12:02:23;6.50;;;1.45;;
65686;SDS011;52406;45.078;38.986;2022-07-06T12:04:50;21.65;;;2.53;;
65686;SDS011;52406;45.078;38.986;2022-07-06T12:07:18;5.75;;;1.27;;
65686;SDS011;52406;45.078;38.986;2022-07-06T12:09:46;14.40;;;1.30;;
65686;SDS011;52406;45.078;38.986;2022-07-06T12:12:14;10.05;;;1.33;;
65686;SDS011;52406;45.078;38.986;2022-07-06T12:14:43;5.32;;;1.15;;
65686;SDS011;52406;45.078;38.986;2022-07-06T12:17:12;5.78;;;1.02;;
65686;SDS011;52406;45.078;38.986;2022-07-06T12:19:43;3.55;;;1.02;;
65686;SDS011;52406;45.078;38.986;2022-07-06T12:22:13;10.10;;;1.30;;
65686;SDS011;52406;45.078;38.986;2022-07-06T12:24:51;7.00;;;2.22;;
65686;SDS011;52406;45.078;38.986;2022-07-06T12:27:20;9.02;;;1.70;;
65686;SDS011;52406;45.078;38.986;2022-07-06T12:29:47;9.63;;;1.63;;
65686;SDS011;52406;45.078;38.986;2022-07-06T12:32:18;5.18;;;1.52;;
65686;SDS011;52406;45.078;38.986;2022-07-06T12:35:05;5.93;;;1.20;;
65686;SDS011;52406;45.078;38.986;2022-07-06T12:37:33;15.10;;;1.58;;
65686;SDS011;52406;45.078;38.986;2022-07-06T12:40:25;4.63;;;1.30;;
65686;SDS011;52406;45.078;38.986;2022-07-06T12:42:56;5.97;;;1.10;;
65686;SDS011;52406;45.078;38.986;2022-07-06T12:45:29;6.65;;;1.40;;
65686;SDS011;52406;45.078;38.986;2022-07-06T12:47:57;6.40;;;1.20;;
65686;SDS011;52406;45.078;38.986;2022-07-06T12:50:36;7.22;;;1.48;;
65686;SDS011;52406;45.078;38.986;2022-07-06T12:53:04;2.00;;;1.23;;
65686;SDS011;52406;45.078;38.986;2022-07-06T12:55:37;6.97;;;1.60;;
65686;SDS011;52406;45.078;38.986;2022-07-06T12:58:04;5.38;;;1.10;;
65686;SDS011;52406;45.078;38.986;2022-07-06T13:00:32;5.57;;;1.38;;
65686;SDS011;52406;45.078;38.986;2022-07-06T13:03:15;3.80;;;1.35;;
65686;SDS011;52406;45.078;38.986;2022-07-06T13:05:48;3.53;;;1.10;;
65686;SDS011;52406;45.078;38.986;2022-07-06T13:08:16;10.98;;;1.73;;
65686;SDS011;52406;45.078;38.986;2022-07-06T13:10:45;10.57;;;1.35;;
65686;SDS011;52406;45.078;38.986;2022-07-06T13:13:15;7.35;;;1.60;;
65686;SDS011;52406;45.078;38.986;2022-07-06T13:15:41;8.75;;;1.52;;
65686;SDS011;52406;45.078;38.986;2022-07-06T13:18:08;8.65;;;1.40;;
65686;SDS011;52406;45.078;38.986;2022-07-06T13:20:37;5.78;;;1.00;;
65686;SDS011;52406;45.078;38.986;2022-07-06T13:23:04;5.47;;;1.70;;
65686;SDS011;52406;45.078;38.986;2022-07-06T13:25:30;11.75;;;1.50;;
65686;SDS011;52406;45.078;38.986;2022-07-06T13:27:59;7.32;;;1.42;;
65686;SDS011;52406;45.078;38.986;2022-07-06T13:30:27;20.63;;;1.58;;
65686;SDS011;52406;45.078;38.986;2022-07-06T13:32:58;11.18;;;1.52;;
65686;SDS011;52406;45.078;38.986;2022-07-06T13:35:27;10.23;;;1.40;;
65686;SDS011;52406;45.078;38.986;2022-07-06T13:37:53;5.45;;;1.38;;
65686;SDS011;52406;45.078;38.986;2022-07-06T13:40:23;8.70;;;1.17;;
65686;SDS011;52406;45.078;38.986;2022-07-06T13:42:51;6.00;;;1.65;;
65686;SDS011;52406;45.078;38.986;2022-07-06T13:45:20;8.02;;;1.50;;
65686;SDS011;52406;45.078;38.986;2022-07-06T13:47:48;7.93;;;1.60;;
65686;SDS011;52406;45.078;38.986;2022-07-06T13:50:20;4.40;;;1.20;;
65686;SDS011;52406;45.078;38.986;2022-07-06T13:52:46;9.73;;;1.20;;
65686;SDS011;52406;45.078;38.986;2022-07-06T13:55:14;6.43;;;1.33;;
65686;SDS011;52406;45.078;38.986;2022-07-06T13:57:41;10.02;;;1.70;;
65686;SDS011;52406;45.078;38.986;2022-07-06T14:00:09;6.18;;;1.40;;
65686;SDS011;52406;45.078;38.986;2022-07-06T14:02:38;11.30;;;1.58;;
65686;SDS011;52406;45.078;38.986;2022-07-06T14:05:05;8.05;;;2.10;;
65686;SDS011;52406;45.078;38.986;2022-07-06T14:07:32;7.38;;;1.85;;
65686;SDS011;52406;45.078;38.986;2022-07-06T14:09:59;9.73;;;1.65;;
65686;SDS011;52406;45.078;38.986;2022-07-06T14:12:28;7.57;;;1.50;;
65686;SDS011;52406;45.078;38.986;2022-07-06T14:14:55;5.55;;;1.58;;
65686;SDS011;52406;45.078;38.986;2022-07-06T14:17:22;10.02;;;1.60;;
65686;SDS011;52406;45.078;38.986;2022-07-06T14:19:49;4.28;;;1.40;;
65686;SDS011;52406;45.078;38.986;2022-07-06T14:22:18;7.40;;;1.65;;
65686;SDS011;52406;45.078;38.986;2022-07-06T14:24:44;9.43;;;1.85;;
65686;SDS011;52406;45.078;38.986;2022-07-06T14:27:12;10.70;;;1.95;;
65686;SDS011;52406;45.078;38.986;2022-07-06T14:29:39;11.80;;;2.10;;
65686;SDS011;52406;45.078;38.986;2022-07-06T14:32:05;6.88;;;1.40;;
65686;SDS011;52406;45.078;38.986;2022-07-06T14:34:32;5.10;;;1.33;;
65686;SDS011;52406;45.078;38.986;2022-07-06T14:37:00;7.65;;;1.65;;
65686;SDS011;52406;45.078;38.986;2022-07-06T14:39:26;6.03;;;1.50;;
65686;SDS011;52406;45.078;38.986;2022-07-06T14:41:53;5.70;;;1.90;;
65686;SDS011;52406;45.078;38.986;2022-07-06T14:44:19;12.65;;;1.50;;